createdAt,value
2022-12-29T00:00:10.912Z,4.40
2022-12-29T00:02:37.639Z,4.50
2022-12-29T00:05:04.780Z,4.50
2022-12-29T00:07:31.392Z,4.50
2022-12-29T00:09:58.010Z,4.60
2022-12-29T00:12:24.614Z,4.60
2022-12-29T00:15:09.817Z,4.70
2022-12-29T00:17:36.432Z,4.60
2022-12-29T00:20:21.653Z,4.70
2022-12-29T00:23:06.980Z,4.80
2022-12-29T00:25:52.251Z,4.80
2022-12-29T00:28:37.490Z,4.80
2022-12-29T00:31:31.229Z,4.80
2022-12-29T00:34:17.435Z,4.90
2022-12-29T00:36:45.742Z,4.70
2022-12-29T00:39:37.379Z,4.70
2022-12-29T00:42:40.302Z,4.60
2022-12-29T00:45:07.265Z,4.60
2022-12-29T00:47:33.902Z,4.50
2022-12-29T00:50:00.882Z,4.50
2022-12-29T00:52:27.538Z,4.50
2022-12-29T00:54:54.139Z,4.40
2022-12-29T00:57:20.750Z,4.50
2022-12-29T00:59:47.453Z,4.40
2022-12-29T01:02:14.225Z,4.40
2022-12-29T01:04:40.983Z,4.40
2022-12-29T01:07:08.221Z,4.40
2022-12-29T01:09:53.718Z,4.40
2022-12-29T01:12:40.403Z,4.40
2022-12-29T01:15:08.978Z,4.40
2022-12-29T01:17:36.268Z,4.30
2022-12-29T01:20:04.209Z,4.40
2022-12-29T01:22:30.874Z,4.30
2022-12-29T01:24:57.530Z,4.30
2022-12-29T01:27:24.226Z,4.30
2022-12-29T01:29:50.891Z,4.30
2022-12-29T01:32:17.671Z,4.30
2022-12-29T01:34:45.066Z,4.30
2022-12-29T01:37:12.270Z,4.30
2022-12-29T01:39:38.857Z,4.30
2022-12-29T01:42:05.697Z,4.30
2022-12-29T01:44:50.803Z,4.30
2022-12-29T01:47:34.729Z,4.30
2022-12-29T01:50:12.721Z,4.30
2022-12-29T01:52:43.915Z,4.30
2022-12-29T01:55:12.784Z,4.40
2022-12-29T01:57:44.245Z,4.40
2022-12-29T02:00:14.467Z,4.40
2022-12-29T02:02:46.814Z,4.40
2022-12-29T02:05:32.656Z,4.40
2022-12-29T02:08:00.498Z,4.40
2022-12-29T02:10:29.215Z,4.50
2022-12-29T02:12:55.936Z,4.50
2022-12-29T02:15:48.935Z,4.50
2022-12-29T02:18:30.539Z,4.50
2022-12-29T02:21:22.102Z,4.50
2022-12-29T02:23:51.722Z,4.50
2022-12-29T02:27:04.760Z,4.50
2022-12-29T02:30:05.354Z,4.50
2022-12-29T02:32:51.414Z,4.50
2022-12-29T02:35:26.382Z,4.50
2022-12-29T02:38:14.290Z,4.50
2022-12-29T02:40:52.089Z,4.60
2022-12-29T02:43:34.043Z,4.70
2022-12-29T02:46:30.063Z,4.70
2022-12-29T02:49:04.931Z,4.70
2022-12-29T02:51:47.685Z,4.80
2022-12-29T02:54:33.071Z,4.80
2022-12-29T02:56:59.697Z,4.90
2022-12-29T02:59:26.456Z,4.90
2022-12-29T03:02:22.039Z,4.90
2022-12-29T03:04:54.542Z,5.00
2022-12-29T03:07:48.618Z,5.10
2022-12-29T03:10:38.398Z,5.20
2022-12-29T03:14:05.870Z,5.20
2022-12-29T03:16:46.685Z,5.20
2022-12-29T03:19:37.765Z,5.30
2022-12-29T03:22:29.216Z,5.30
2022-12-29T03:25:05.964Z,5.40
2022-12-29T03:28:03.988Z,5.50
2022-12-29T03:30:33.182Z,5.50
2022-12-29T04:19:46.785Z,5.60
2022-12-29T04:22:13.382Z,6.10
2022-12-29T04:24:40.988Z,6.00
2022-12-29T04:27:07.634Z,6.00
2022-12-29T04:29:34.391Z,6.10
2022-12-29T04:32:00.983Z,6.10
2022-12-29T04:34:27.550Z,6.10
2022-12-29T04:36:54.646Z,6.10
2022-12-29T04:39:21.249Z,6.20
2022-12-29T04:41:47.874Z,6.20
2022-12-29T04:44:14.560Z,6.20
2022-12-29T04:46:41.223Z,6.30
2022-12-29T04:49:09.523Z,6.30
2022-12-29T04:51:36.645Z,6.30
2022-12-29T04:54:03.349Z,6.30
2022-12-29T04:56:29.928Z,6.30
2022-12-29T04:58:56.500Z,6.30
2022-12-29T08:44:59.540Z,6.30
2022-12-29T08:47:26.617Z,8.40
2022-12-29T08:49:53.481Z,8.50
2022-12-29T08:52:20.325Z,8.50
2022-12-29T08:54:47.004Z,8.50
2022-12-29T08:57:13.685Z,8.60
2022-12-29T08:59:40.304Z,8.60
2022-12-29T09:02:07.309Z,8.60
2022-12-29T09:04:34.249Z,8.60
2022-12-29T09:07:00.973Z,8.60
2022-12-29T09:09:27.593Z,8.60
2022-12-29T09:11:54.237Z,8.70
2022-12-29T09:14:22.368Z,8.70
2022-12-29T09:17:09.881Z,8.80
2022-12-29T09:19:36.793Z,8.80
2022-12-29T09:22:04.029Z,8.90
2022-12-29T09:24:31.877Z,8.90
2022-12-29T09:26:58.497Z,9.10
2022-12-29T09:29:25.139Z,9.20
2022-12-29T09:31:51.785Z,9.30
2022-12-29T09:34:18.435Z,9.30
2022-12-29T09:36:45.011Z,9.50
2022-12-29T09:39:13.015Z,9.80
2022-12-29T09:42:09.779Z,9.80
2022-12-29T09:45:16.047Z,9.90
2022-12-29T09:47:44.758Z,10.10
2022-12-29T09:50:38.723Z,10.10
2022-12-29T09:53:42.034Z,10.20
2022-12-29T09:56:17.017Z,10.20
2022-12-29T09:59:11.402Z,10.30
2022-12-29T10:01:43.857Z,10.30
2022-12-29T10:04:10.617Z,10.30
2022-12-29T10:07:28.469Z,10.30
2022-12-29T10:10:20.070Z,10.30
2022-12-29T10:12:56.543Z,10.40
2022-12-29T10:15:52.499Z,10.40
2022-12-29T10:18:41.561Z,10.40
2022-12-29T10:21:08.135Z,10.50
2022-12-29T10:23:45.846Z,10.50
2022-12-29T10:26:19.086Z,10.50
2022-12-29T10:28:53.586Z,10.50
2022-12-29T10:31:24.259Z,10.70
2022-12-29T10:33:57.305Z,10.60
2022-12-29T10:36:39.468Z,10.80
2022-12-29T10:39:43.209Z,10.90
2022-12-29T10:42:21.337Z,10.90
2022-12-29T10:44:48.385Z,11.00
2022-12-29T10:47:19.665Z,10.90
2022-12-29T10:49:48.235Z,10.90
2022-12-29T10:52:17.274Z,11.00
2022-12-29T10:54:52.509Z,11.00
2022-12-29T10:57:38.235Z,10.90
2022-12-29T11:00:17.718Z,11.00
2022-12-29T11:03:04.655Z,11.00
2022-12-29T11:05:41.706Z,11.10
2022-12-29T11:08:17.407Z,11.10
2022-12-29T11:10:45.934Z,11.20
2022-12-29T11:13:27.270Z,11.40
2022-12-29T11:15:53.969Z,11.50
2022-12-29T11:18:34.112Z,11.60
2022-12-29T11:21:03.747Z,11.70
2022-12-29T11:23:40.034Z,11.60
2022-12-29T11:26:15.463Z,11.70
2022-12-29T11:28:44.912Z,11.70
2022-12-29T11:31:11.789Z,11.80
2022-12-29T11:33:39.812Z,11.90
2022-12-29T11:36:18.095Z,12.00
2022-12-29T12:14:03.752Z,12.10
2022-12-29T12:16:58.380Z,14.20
2022-12-29T12:19:42.000Z,14.80
2022-12-29T12:22:20.991Z,14.90
2022-12-29T12:24:59.121Z,14.50
2022-12-29T12:27:27.920Z,14.40
2022-12-29T12:30:10.320Z,14.20
2022-12-29T12:32:45.404Z,14.10
2022-12-29T12:35:22.116Z,14.40
2022-12-29T12:37:48.861Z,15.20
2022-12-29T12:40:47.516Z,15.70
2022-12-29T12:43:23.409Z,15.80
2022-12-29T12:46:12.194Z,15.40
2022-12-29T12:49:00.116Z,15.00
2022-12-29T12:51:45.519Z,14.60
2022-12-29T12:54:21.001Z,14.20
2022-12-29T12:56:53.534Z,14.00
2022-12-29T12:59:38.683Z,14.00
2022-12-29T13:02:42.985Z,13.90
2022-12-29T13:10:53.693Z,13.90
2022-12-29T13:13:37.756Z,13.40
2022-12-29T13:16:41.079Z,13.30
2022-12-29T13:19:35.534Z,13.40
2022-12-29T13:22:07.127Z,13.20
2022-12-29T13:24:55.112Z,13.20
2022-12-29T13:27:38.230Z,13.10
2022-12-29T13:30:18.800Z,13.10
2022-12-29T13:38:04.398Z,13.00
2022-12-29T13:40:37.078Z,12.80
2022-12-29T13:43:04.097Z,12.80
2022-12-29T13:45:33.543Z,12.80
2022-12-29T13:48:23.102Z,12.80
2022-12-29T13:50:54.340Z,12.70
2022-12-29T13:53:36.697Z,12.70
2022-12-29T13:56:13.788Z,12.70
2022-12-29T13:58:54.367Z,12.60
2022-12-29T14:01:21.068Z,12.60
2022-12-29T20:25:46.656Z,12.60
2022-12-29T20:28:14.953Z,9.00
2022-12-29T20:30:41.701Z,8.90
2022-12-29T20:33:08.928Z,8.90
2022-12-29T20:35:36.268Z,8.80
2022-12-29T20:38:03.122Z,8.80
2022-12-29T20:40:29.711Z,8.80
2022-12-29T20:42:56.551Z,8.80
2022-12-29T20:58:14.145Z,8.70
2022-12-29T21:00:25.773Z,8.70
2022-12-29T21:02:52.948Z,8.70
2022-12-29T21:05:24.415Z,8.70
2022-12-29T21:07:52.386Z,8.80
2022-12-29T21:10:19.127Z,8.70
2022-12-29T21:12:45.925Z,8.70
2022-12-29T21:15:14.968Z,8.70
2022-12-29T21:17:42.829Z,8.70
2022-12-29T21:20:10.499Z,8.80
2022-12-29T21:22:37.067Z,8.80
2022-12-29T21:25:03.985Z,8.80
2022-12-29T21:27:30.622Z,8.70
2022-12-29T21:29:57.934Z,8.70
2022-12-29T21:32:24.508Z,8.70
2022-12-29T21:34:51.080Z,8.70
2022-12-29T21:37:23.460Z,8.70
2022-12-29T21:39:50.439Z,8.60
2022-12-29T21:42:17.052Z,8.60
2022-12-29T21:45:02.534Z,8.60
2022-12-29T21:47:49.135Z,8.60
2022-12-29T21:50:15.775Z,8.50
2022-12-29T21:52:42.387Z,8.50
2022-12-29T21:55:09.358Z,8.60
2022-12-29T21:57:55.923Z,8.60
2022-12-29T22:00:41.315Z,8.50
2022-12-29T22:03:27.058Z,8.50
2022-12-29T22:06:12.618Z,8.40
2022-12-29T22:08:58.672Z,8.40
2022-12-29T22:11:44.274Z,8.40
2022-12-29T22:14:11.003Z,8.30
2022-12-29T22:16:37.640Z,8.30
2022-12-29T22:19:04.495Z,8.30
2022-12-29T22:21:31.432Z,8.30
2022-12-29T22:23:58.109Z,8.20
2022-12-29T22:26:24.757Z,8.30
2022-12-29T22:28:52.388Z,8.20
2022-12-29T22:31:27.927Z,8.20
2022-12-29T22:33:56.362Z,8.20
2022-12-29T22:36:23.609Z,8.10
2022-12-29T22:38:50.459Z,8.10
2022-12-29T22:41:17.072Z,8.00
2022-12-29T22:43:43.890Z,8.00
2022-12-29T22:46:10.907Z,7.90
2022-12-29T22:48:37.914Z,7.90
2022-12-29T22:51:04.804Z,7.90
2022-12-29T22:53:31.530Z,7.90
